Time;durP1;ratioP1;P1;durP2;ratioP2;P2;SDS_P1;SDS_P2;PMS_P1;PMS_P2;Temp;Humidity;BMP_temperature;BMP_pressure;BME280_temperature;BME280_humidity;BME280_pressure;Samples;Min_cycle;Max_cycle;Signal;HPM_P1;HPM_P2
2021/09/16 00:00:55;;;;;;;;;;;15.50;99.90;;;;;;5113662;28;19954;-71
2021/09/16 00:03:20;;;;;;;;;;;15.60;99.90;;;;;;5113741;28;19908;-70
2021/09/16 00:05:46;;;;;;;;;;;15.70;99.90;;;;;;5113464;28;19912;-70
2021/09/16 00:08:11;;;;;;;;;;;15.60;99.90;;;;;;5113625;28;20010;-71
2021/09/16 00:10:37;;;;;;;;;;;15.70;99.90;;;;;;5113551;28;19915;-71
2021/09/16 00:13:02;;;;;;;;;;;15.60;99.90;;;;;;5113552;28;19930;-71
2021/09/16 00:15:28;;;;;;;;;;;15.60;99.90;;;;;;5113681;28;19908;-71
2021/09/16 00:17:53;;;;;;;;;;;15.60;99.90;;;;;;5108998;28;20280;-71
2021/09/16 00:20:19;;;;;;;;;;;15.60;99.90;;;;;;5113072;28;20014;-71
2021/09/16 00:22:44;;;;;;;;;;;15.60;99.90;;;;;;5113425;28;20365;-71
2021/09/16 00:25:10;;;;;;;;;;;15.60;99.90;;;;;;5113497;28;20012;-70
2021/09/16 00:27:35;;;;;;;;;;;15.50;99.90;;;;;;5113042;28;19975;-71
2021/09/16 00:30:01;;;;;;;;;;;15.60;99.90;;;;;;5113318;28;19915;-71
2021/09/16 00:32:27;;;;;;;;;;;15.50;99.90;;;;;;5113222;28;20426;-70
2021/09/16 00:34:52;;;;;;;;;;;15.50;99.90;;;;;;5112945;28;19908;-71
2021/09/16 00:37:18;;;;;;;;;;;15.50;99.90;;;;;;5112553;28;19908;-71
2021/09/16 00:39:43;;;;;;;;;;;15.50;99.90;;;;;;5112848;28;20281;-71
2021/09/16 00:42:13;;;;;;;;;;;15.50;99.90;;;;;;5113072;28;19977;-71
2021/09/16 00:44:38;;;;;;;;;;;15.50;99.90;;;;;;5113000;28;19964;-71
2021/09/16 00:47:03;;;;;;;;;;;15.50;99.90;;;;;;5108637;28;19959;-71
2021/09/16 00:49:29;;;;;;;;;;;15.50;99.90;;;;;;5112363;28;19908;-70
2021/09/16 00:51:56;;;;;;;;;;;15.60;99.90;;;;;;5112651;28;19915;-70
2021/09/16 00:54:22;;;;;;;;;;;15.60;99.90;;;;;;5112760;28;19915;-71
2021/09/16 00:56:48;;;;;;;;;;;15.60;99.90;;;;;;5112302;28;20292;-70
2021/09/16 00:59:16;;;;;;;;;;;15.70;99.90;;;;;;5112554;28;19912;-70
2021/09/16 01:01:42;;;;;;;;;;;15.70;99.90;;;;;;5112610;28;20367;-71
2021/09/16 01:04:07;;;;;;;;;;;15.70;99.90;;;;;;5113523;28;19908;-70
2021/09/16 01:06:33;;;;;;;;;;;15.80;99.90;;;;;;5112327;28;19914;-70
2021/09/16 01:08:58;;;;;;;;;;;15.80;99.90;;;;;;5112523;28;19907;-71
2021/09/16 01:11:24;;;;;;;;;;;15.80;99.90;;;;;;5111540;28;19908;-71
2021/09/16 01:13:50;;;;;;;;;;;15.80;99.90;;;;;;5111544;28;19920;-70
2021/09/16 01:16:15;;;;;;;;;;;15.80;99.90;;;;;;5112481;28;20205;-70
2021/09/16 01:18:41;;;;;;;;;;;15.90;99.90;;;;;;5108004;28;19916;-71
2021/09/16 01:21:06;;;;;;;;;;;15.90;99.90;;;;;;5112227;28;19964;-71
2021/09/16 01:23:32;;;;;;;;;;;16.00;99.90;;;;;;5112189;28;19954;-70
2021/09/16 01:25:57;;;;;;;;;;;16.00;99.90;;;;;;5112134;28;19911;-71
2021/09/16 01:28:23;;;;;;;;;;;16.00;99.90;;;;;;5111861;28;19908;-71
2021/09/16 01:30:49;;;;;;;;;;;15.90;99.90;;;;;;5112059;28;19915;-71
2021/09/16 01:33:15;;;;;;;;;;;15.90;99.90;;;;;;5111835;28;20332;-71
2021/09/16 01:35:40;;;;;;;;;;;15.90;99.90;;;;;;5112098;28;20334;-71
2021/09/16 01:38:06;;;;;;;;;;;15.90;99.90;;;;;;5111536;28;20339;-71
2021/09/16 01:40:31;;;;;;;;;;;16.00;99.90;;;;;;5111951;28;19908;-71
2021/09/16 01:42:57;;;;;;;;;;;15.90;99.90;;;;;;5111796;28;19908;-70
2021/09/16 01:45:24;;;;;;;;;;;16.00;99.90;;;;;;5111922;28;19915;-70
2021/09/16 01:47:50;;;;;;;;;;;16.00;99.90;;;;;;5107261;28;19915;-70
2021/09/16 01:50:17;;;;;;;;;;;16.10;99.90;;;;;;5111714;28;19960;-71
2021/09/16 01:52:43;;;;;;;;;;;16.00;99.90;;;;;;5111857;28;19908;-71
2021/09/16 01:55:09;;;;;;;;;;;16.00;99.90;;;;;;5111744;28;20364;-71
2021/09/16 01:57:34;;;;;;;;;;;16.00;99.90;;;;;;5111364;28;20360;-70
2021/09/16 02:00:00;;;;;;;;;;;16.00;99.90;;;;;;5111725;28;19915;-71
2021/09/16 02:02:26;;;;;;;;;;;16.00;99.90;;;;;;5111470;28;19908;-70
2021/09/16 02:04:51;;;;;;;;;;;16.00;99.90;;;;;;5111603;28;20326;-71
2021/09/16 02:07:17;;;;;;;;;;;16.00;99.90;;;;;;5111375;28;19912;-71
2021/09/16 02:09:42;;;;;;;;;;;16.00;99.90;;;;;;5111721;28;20265;-71
2021/09/16 02:12:08;;;;;;;;;;;16.00;99.90;;;;;;5111486;28;19908;-70
2021/09/16 02:14:33;;;;;;;;;;;16.00;99.90;;;;;;5111568;28;19961;-70
2021/09/16 02:16:59;;;;;;;;;;;16.00;99.90;;;;;;5107177;28;19944;-71
2021/09/16 02:19:24;;;;;;;;;;;15.90;99.90;;;;;;5111158;28;19969;-70
2021/09/16 02:21:50;;;;;;;;;;;16.00;99.90;;;;;;5111353;28;19908;-71
2021/09/16 02:24:15;;;;;;;;;;;16.00;99.90;;;;;;5114844;28;19915;-70
2021/09/16 02:26:41;;;;;;;;;;;15.90;99.90;;;;;;5115293;28;20227;-71
2021/09/16 02:29:06;;;;;;;;;;;15.80;99.90;;;;;;5115548;28;19911;-71
2021/09/16 02:31:32;;;;;;;;;;;15.80;99.90;;;;;;5115366;28;19996;-71
2021/09/16 02:33:57;;;;;;;;;;;15.80;99.90;;;;;;5115512;28;19914;-71
2021/09/16 02:36:23;;;;;;;;;;;15.70;99.90;;;;;;5115428;28;19913;-71
2021/09/16 02:38:48;;;;;;;;;;;15.70;99.90;;;;;;5115387;28;19912;-71
2021/09/16 02:41:14;;;;;;;;;;;15.70;99.90;;;;;;5115686;28;20365;-71
2021/09/16 02:43:39;;;;;;;;;;;15.70;99.90;;;;;;5115265;28;20018;-70
2021/09/16 02:46:05;;;;;;;;;;;15.70;99.90;;;;;;5114558;28;19951;-70
2021/09/16 02:48:30;;;;;;;;;;;15.70;99.90;;;;;;5111075;28;20280;-71
2021/09/16 02:50:56;;;;;;;;;;;15.80;99.90;;;;;;5114982;28;19919;-71
2021/09/16 02:53:21;;;;;;;;;;;15.80;99.90;;;;;;5115102;28;19907;-71
2021/09/16 02:55:47;;;;;;;;;;;15.80;99.90;;;;;;5114993;28;19965;-71
2021/09/16 02:58:13;;;;;;;;;;;15.80;99.90;;;;;;5114533;28;19912;-71
2021/09/16 03:00:38;;;;;;;;;;;15.70;99.90;;;;;;5114808;28;20000;-71
2021/09/16 03:03:04;;;;;;;;;;;15.80;99.90;;;;;;5114812;28;19982;-71
2021/09/16 03:05:29;;;;;;;;;;;15.70;99.90;;;;;;5114852;28;19915;-71
2021/09/16 03:07:55;;;;;;;;;;;15.70;99.90;;;;;;5114502;28;19931;-71
2021/09/16 03:10:20;;;;;;;;;;;15.70;99.90;;;;;;5114861;28;19977;-71
2021/09/16 03:12:46;;;;;;;;;;;15.80;99.90;;;;;;5114692;28;19912;-71
2021/09/16 03:15:12;;;;;;;;;;;15.90;99.90;;;;;;5114543;28;19912;-71
2021/09/16 03:17:37;;;;;;;;;;;15.90;99.90;;;;;;5110434;28;19922;-71
2021/09/16 03:20:03;;;;;;;;;;;15.90;99.90;;;;;;5114341;28;20007;-71
2021/09/16 03:22:29;;;;;;;;;;;16.00;99.90;;;;;;5114537;28;19994;-71
2021/09/16 03:24:54;;;;;;;;;;;16.00;99.90;;;;;;5114445;28;19914;-71
2021/09/16 03:27:19;;;;;;;;;;;16.00;99.90;;;;;;5113984;28;20277;-70
2021/09/16 03:29:45;;;;;;;;;;;16.00;99.90;;;;;;5114267;28;19916;-70
2021/09/16 03:32:10;;;;;;;;;;;16.00;99.90;;;;;;5114170;28;20435;-70
2021/09/16 03:34:36;;;;;;;;;;;16.00;99.90;;;;;;5113599;28;19916;-71
2021/09/16 03:37:01;;;;;;;;;;;16.00;99.90;;;;;;5113792;28;19915;-70
2021/09/16 03:39:27;;;;;;;;;;;16.10;99.90;;;;;;5114162;28;20003;-70
2021/09/16 03:41:52;;;;;;;;;;;16.00;99.90;;;;;;5114103;28;19908;-70
2021/09/16 03:44:18;;;;;;;;;;;15.90;99.90;;;;;;5114051;28;19946;-70
2021/09/16 03:46:43;;;;;;;;;;;15.90;99.90;;;;;;5109728;28;20360;-70
2021/09/16 03:49:09;;;;;;;;;;;15.80;99.90;;;;;;5114937;28;19907;-71
2021/09/16 03:51:34;;;;;;;;;;;15.80;99.90;;;;;;5115494;28;19915;-71
2021/09/16 03:54:00;;;;;;;;;;;15.80;99.90;;;;;;5115227;28;20261;-70
2021/09/16 03:56:25;;;;;;;;;;;15.70;99.90;;;;;;5114958;28;19930;-70
2021/09/16 03:58:51;;;;;;;;;;;15.70;99.90;;;;;;5115057;28;19919;-71
2021/09/16 04:01:16;;;;;;;;;;;15.70;99.90;;;;;;5115050;28;19919;-71
2021/09/16 04:03:42;;;;;;;;;;;15.70;99.90;;;;;;5113930;28;19912;-71
2021/09/16 04:06:07;;;;;;;;;;;15.70;99.90;;;;;;5113413;28;20002;-71
2021/09/16 04:08:33;;;;;;;;;;;15.70;99.90;;;;;;5113705;28;19923;-71
2021/09/16 04:10:58;;;;;;;;;;;15.70;99.90;;;;;;5095380;28;19943;-71
2021/09/16 04:13:24;;;;;;;;;;;15.70;99.90;;;;;;5113660;28;19966;-71
2021/09/16 04:15:49;;;;;;;;;;;15.70;99.90;;;;;;5113259;28;19939;-71
2021/09/16 04:18:15;;;;;;;;;;;15.70;99.90;;;;;;5109107;28;20014;-70
2021/09/16 04:20:40;;;;;;;;;;;15.70;99.90;;;;;;5113360;28;19994;-70
2021/09/16 04:23:06;;;;;;;;;;;15.70;99.90;;;;;;5113394;28;20151;-70
2021/09/16 04:25:31;;;;;;;;;;;15.80;99.90;;;;;;5113377;28;20313;-71
2021/09/16 04:27:57;;;;;;;;;;;15.70;99.90;;;;;;5112912;28;19912;-71
2021/09/16 04:30:22;;;;;;;;;;;15.80;99.90;;;;;;5112977;28;19908;-70
2021/09/16 04:32:48;;;;;;;;;;;15.80;99.90;;;;;;5113194;28;19908;-70
2021/09/16 04:35:13;;;;;;;;;;;15.80;99.90;;;;;;5113177;28;19907;-71
2021/09/16 04:37:39;;;;;;;;;;;15.70;99.90;;;;;;5112698;28;19912;-71
2021/09/16 04:40:06;;;;;;;;;;;15.80;99.90;;;;;;5113089;28;19968;-71
2021/09/16 04:42:31;;;;;;;;;;;15.70;99.90;;;;;;5113448;28;19977;-71
2021/09/16 04:44:57;;;;;;;;;;;15.70;99.90;;;;;;5112707;28;19912;-71
2021/09/16 04:47:22;;;;;;;;;;;15.70;99.90;;;;;;5108553;28;19960;-70
2021/09/16 04:49:48;;;;;;;;;;;15.70;99.90;;;;;;5112505;28;19929;-71
2021/09/16 04:52:13;;;;;;;;;;;15.80;99.90;;;;;;5112672;28;19908;-71
2021/09/16 04:54:38;;;;;;;;;;;15.80;99.90;;;;;;5112907;28;20308;-71
2021/09/16 04:57:04;;;;;;;;;;;15.80;99.90;;;;;;5112364;28;19914;-70
2021/09/16 04:59:30;;;;;;;;;;;15.70;99.90;;;;;;5112395;28;19956;-71
2021/09/16 05:01:55;;;;;;;;;;;15.70;99.90;;;;;;5112501;28;19947;-70
2021/09/16 05:04:21;;;;;;;;;;;15.70;99.90;;;;;;5112568;28;19908;-71
2021/09/16 05:06:46;;;;;;;;;;;15.70;99.90;;;;;;5112147;28;20391;-70
2021/09/16 05:09:11;;;;;;;;;;;15.60;99.90;;;;;;5112404;28;19907;-71
2021/09/16 05:11:41;;;;;;;;;;;15.60;99.90;;;;;;5112326;28;20308;-71
2021/09/16 05:14:07;;;;;;;;;;;15.60;99.90;;;;;;5112222;28;19911;-70
2021/09/16 05:16:33;;;;;;;;;;;15.60;99.90;;;;;;5110579;28;19908;-70
2021/09/16 05:18:58;;;;;;;;;;;15.50;99.90;;;;;;5109972;28;19918;-71
2021/09/16 05:21:24;;;;;;;;;;;15.50;99.90;;;;;;5112195;28;20276;-71
2021/09/16 05:23:50;;;;;;;;;;;15.50;99.90;;;;;;5112362;28;19931;-70
2021/09/16 05:26:15;;;;;;;;;;;15.50;99.90;;;;;;5111819;28;19907;-71
2021/09/16 05:28:43;;;;;;;;;;;15.50;99.90;;;;;;5111983;28;20002;-71
2021/09/16 05:31:08;;;;;;;;;;;15.50;99.90;;;;;;5112042;28;19908;-71
2021/09/16 05:33:34;;;;;;;;;;;15.50;99.90;;;;;;5112022;28;19914;-71
2021/09/16 05:36:02;;;;;;;;;;;15.50;99.90;;;;;;5111952;28;19908;-71
2021/09/16 05:38:27;;;;;;;;;;;15.50;99.90;;;;;;5111884;28;20011;-71
2021/09/16 05:40:53;;;;;;;;;;;15.60;99.90;;;;;;5112653;28;19947;-71
2021/09/16 05:43:18;;;;;;;;;;;15.50;99.90;;;;;;5111725;28;19908;-71
2021/09/16 05:45:44;;;;;;;;;;;15.60;99.90;;;;;;5111787;28;19908;-70
2021/09/16 05:48:09;;;;;;;;;;;15.60;99.90;;;;;;5107756;28;19970;-71
2021/09/16 05:50:35;;;;;;;;;;;15.60;99.90;;;;;;5111692;28;20002;-71
2021/09/16 05:53:00;;;;;;;;;;;15.70;99.90;;;;;;5111768;28;19907;-71
2021/09/16 05:55:26;;;;;;;;;;;15.70;99.90;;;;;;5111850;28;20384;-70
2021/09/16 05:57:51;;;;;;;;;;;15.70;99.90;;;;;;5110680;28;20265;-71
2021/09/16 06:00:17;;;;;;;;;;;15.80;99.90;;;;;;5111731;28;19908;-71
2021/09/16 06:02:43;;;;;;;;;;;15.90;99.90;;;;;;5111722;28;19954;-71
2021/09/16 06:05:08;;;;;;;;;;;16.00;99.90;;;;;;5111837;28;19975;-70
2021/09/16 06:07:34;;;;;;;;;;;16.00;99.90;;;;;;5111200;28;19990;-70
2021/09/16 06:10:00;;;;;;;;;;;16.10;99.90;;;;;;5111682;28;19912;-71
2021/09/16 06:12:27;;;;;;;;;;;16.10;99.90;;;;;;5111248;28;19908;-71
2021/09/16 06:14:53;;;;;;;;;;;16.10;99.90;;;;;;5111656;28;19943;-71
2021/09/16 06:17:18;;;;;;;;;;;16.20;99.90;;;;;;5107333;28;19915;-71
2021/09/16 06:19:44;;;;;;;;;;;16.30;99.90;;;;;;5111184;28;19918;-71
2021/09/16 06:22:09;;;;;;;;;;;16.30;99.90;;;;;;5111487;28;19914;-72
2021/09/16 06:24:35;;;;;;;;;;;16.40;99.90;;;;;;5111477;28;20148;-71
2021/09/16 06:27:00;;;;;;;;;;;16.30;99.90;;;;;;5109957;28;19915;-71
2021/09/16 06:29:26;;;;;;;;;;;16.40;99.90;;;;;;5111459;28;19915;-71
2021/09/16 06:31:51;;;;;;;;;;;16.30;99.90;;;;;;5111353;28;19908;-71
2021/09/16 06:34:17;;;;;;;;;;;16.40;99.90;;;;;;5111267;28;20052;-71
2021/09/16 06:36:42;;;;;;;;;;;16.40;99.90;;;;;;5110885;28;19960;-71
2021/09/16 06:39:08;;;;;;;;;;;16.40;99.90;;;;;;5111255;28;20014;-72
2021/09/16 06:41:33;;;;;;;;;;;16.60;99.90;;;;;;5111017;28;19988;-71
2021/09/16 06:43:59;;;;;;;;;;;16.60;99.90;;;;;;5111515;28;20049;-71
2021/09/16 06:46:24;;;;;;;;;;;16.80;99.90;;;;;;5110721;28;19923;-71
2021/09/16 06:48:50;;;;;;;;;;;16.90;99.90;;;;;;5107146;28;20429;-72
2021/09/16 06:51:15;;;;;;;;;;;17.10;99.90;;;;;;5111193;28;19923;-71
2021/09/16 06:53:41;;;;;;;;;;;17.20;99.90;;;;;;5110876;28;20421;-71
2021/09/16 06:56:06;;;;;;;;;;;17.30;99.90;;;;;;5110471;28;19912;-71
2021/09/16 06:58:32;;;;;;;;;;;17.20;99.90;;;;;;5111112;28;19919;-71
2021/09/16 07:00:57;;;;;;;;;;;17.20;99.90;;;;;;5107383;28;19935;-71
2021/09/16 07:03:23;;;;;;;;;;;17.20;99.90;;;;;;5085791;28;19962;-71
2021/09/16 07:05:48;;;;;;;;;;;17.30;99.90;;;;;;5100074;28;20039;-71
2021/09/16 07:08:14;;;;;;;;;;;17.20;99.90;;;;;;5070579;28;19916;-71
2021/09/16 07:10:41;;;;;;;;;;;17.20;99.90;;;;;;5086435;28;19914;-71
2021/09/16 07:13:07;;;;;;;;;;;17.10;99.90;;;;;;5095830;28;20135;-71
2021/09/16 07:15:32;;;;;;;;;;;17.10;99.90;;;;;;5092555;28;19912;-71
2021/09/16 07:17:57;;;;;;;;;;;17.10;99.90;;;;;;5098006;28;20863;-71
2021/09/16 07:20:23;;;;;;;;;;;17.20;99.90;;;;;;5107983;28;19995;-72
2021/09/16 07:22:48;;;;;;;;;;;17.10;99.90;;;;;;5110221;28;20284;-71
2021/09/16 07:25:14;;;;;;;;;;;17.10;99.90;;;;;;5078816;28;19916;-71
2021/09/16 07:27:39;;;;;;;;;;;17.10;99.90;;;;;;5087141;28;20320;-71
2021/09/16 07:30:05;;;;;;;;;;;17.20;99.90;;;;;;5092134;28;19919;-72
2021/09/16 07:32:31;;;;;;;;;;;17.20;99.90;;;;;;5077161;28;19909;-72
2021/09/16 07:34:57;;;;;;;;;;;17.10;99.90;;;;;;5093066;28;19935;-71
2021/09/16 07:37:23;;;;;;;;;;;17.00;99.90;;;;;;5098731;28;19930;-71
2021/09/16 07:39:48;;;;;;;;;;;17.00;99.90;;;;;;5113104;28;19918;-71
2021/09/16 07:42:14;;;;;;;;;;;17.00;99.90;;;;;;5113704;28;20674;-71
2021/09/16 07:44:39;;;;;;;;;;;16.90;99.90;;;;;;5113056;28;19918;-71
2021/09/16 07:47:05;;;;;;;;;;;17.00;99.90;;;;;;5107760;28;20396;-71
2021/09/16 07:49:30;;;;;;;;;;;17.10;99.90;;;;;;5093099;28;20007;-70
2021/09/16 07:51:56;;;;;;;;;;;17.20;99.90;;;;;;5093683;28;19908;-72
2021/09/16 07:54:21;;;;;;;;;;;17.30;99.90;;;;;;5092429;28;19930;-70
2021/09/16 07:56:47;;;;;;;;;;;17.30;99.90;;;;;;5092154;28;20284;-70
2021/09/16 07:59:12;;;;;;;;;;;17.40;99.90;;;;;;5093180;28;19952;-70
2021/09/16 08:01:38;;;;;;;;;;;17.30;99.90;;;;;;5091276;28;19995;-72
2021/09/16 08:04:04;;;;;;;;;;;17.40;99.90;;;;;;5110583;28;19962;-72
2021/09/16 08:06:30;;;;;;;;;;;17.50;99.90;;;;;;5112280;28;19908;-70
2021/09/16 08:08:55;;;;;;;;;;;17.30;99.90;;;;;;5113187;28;19915;-69
2021/09/16 08:11:21;;;;;;;;;;;17.20;99.90;;;;;;5112775;28;19998;-70
2021/09/16 08:13:46;;;;;;;;;;;17.10;99.90;;;;;;5113389;28;19926;-70
2021/09/16 08:16:12;;;;;;;;;;;16.90;99.90;;;;;;5112820;28;19908;-69
2021/09/16 08:18:37;;;;;;;;;;;16.70;99.90;;;;;;5094314;28;19927;-70
2021/09/16 08:21:03;;;;;;;;;;;16.50;99.90;;;;;;5093946;28;19908;-69
2021/09/16 08:23:29;;;;;;;;;;;16.40;99.90;;;;;;5093434;28;19908;-70
2021/09/16 08:25:55;;;;;;;;;;;16.40;99.90;;;;;;5091693;28;20074;-69
2021/09/16 08:28:20;;;;;;;;;;;16.20;99.90;;;;;;5092173;28;19912;-69
2021/09/16 08:30:46;;;;;;;;;;;16.00;99.90;;;;;;5091871;28;19916;-69
2021/09/16 08:33:13;;;;;;;;;;;15.90;99.90;;;;;;5092906;28;19915;-69
2021/09/16 08:35:38;;;;;;;;;;;16.00;99.90;;;;;;5093706;28;19998;-69
2021/09/16 08:38:04;;;;;;;;;;;16.00;99.90;;;;;;5092219;28;20007;-69
2021/09/16 08:40:29;;;;;;;;;;;15.90;99.90;;;;;;5090888;28;20023;-69
2021/09/16 08:42:55;;;;;;;;;;;16.10;99.90;;;;;;5092573;28;19908;-71
2021/09/16 08:45:22;;;;;;;;;;;15.90;99.90;;;;;;5092609;28;19908;-72
2021/09/16 08:47:49;;;;;;;;;;;15.90;99.90;;;;;;5109365;28;19942;-69
2021/09/16 08:50:16;;;;;;;;;;;16.00;99.90;;;;;;5092041;28;19908;-69
2021/09/16 08:52:43;;;;;;;;;;;16.00;99.90;;;;;;5098322;28;20002;-70
2021/09/16 08:55:09;;;;;;;;;;;15.90;99.90;;;;;;5112728;28;19915;-69
2021/09/16 08:57:37;;;;;;;;;;;15.80;99.90;;;;;;5098338;28;19908;-69
2021/09/16 09:00:07;;;;;;;;;;;15.80;99.90;;;;;;5111699;28;20368;-69
2021/09/16 09:02:34;;;;;;;;;;;15.70;99.90;;;;;;5112764;28;19922;-69
2021/09/16 09:04:59;;;;;;;;;;;15.70;99.90;;;;;;5112818;28;19961;-71
2021/09/16 09:07:35;;;;;;;;;;;15.60;99.90;;;;;;5112233;28;19912;-69
2021/09/16 09:10:00;;;;;;;;;;;15.60;99.90;;;;;;5112444;28;20264;-69
2021/09/16 09:12:28;;;;;;;;;;;15.60;99.90;;;;;;5112745;28;19908;-69
2021/09/16 09:14:54;;;;;;;;;;;15.60;99.90;;;;;;5113023;28;19907;-70
2021/09/16 09:17:24;;;;;;;;;;;15.60;99.90;;;;;;5108900;28;19930;-71
2021/09/16 09:19:51;;;;;;;;;;;15.70;99.90;;;;;;5112214;28;19911;-72
2021/09/16 09:22:17;;;;;;;;;;;15.90;99.90;;;;;;5112744;28;19950;-70
2021/09/16 09:24:44;;;;;;;;;;;15.70;99.90;;;;;;5112575;28;19912;-69
2021/09/16 09:27:23;;;;;;;;;;;15.80;99.90;;;;;;5087901;28;19908;-69
2021/09/16 09:30:03;;;;;;;;;;;15.70;99.90;;;;;;5099975;28;20030;-70
2021/09/16 09:32:47;;;;;;;;;;;15.70;99.90;;;;;;5080444;28;19907;-69
2021/09/16 09:35:23;;;;;;;;;;;15.70;99.90;;;;;;5088694;28;20341;-69
2021/09/16 09:37:48;;;;;;;;;;;15.70;99.90;;;;;;5093358;28;20015;-71
2021/09/16 09:40:14;;;;;;;;;;;15.60;99.90;;;;;;5090012;28;20051;-68
2021/09/16 09:42:39;;;;;;;;;;;15.50;99.90;;;;;;5073009;28;19915;-69
2021/09/16 09:45:08;;;;;;;;;;;15.40;99.90;;;;;;5090361;28;19965;-69
2021/09/16 09:47:35;;;;;;;;;;;15.30;99.90;;;;;;5091558;28;20322;-69
2021/09/16 09:50:01;;;;;;;;;;;15.20;99.90;;;;;;5090542;28;19962;-69
2021/09/16 09:52:26;;;;;;;;;;;15.20;99.90;;;;;;5092399;28;19958;-72
2021/09/16 09:54:52;;;;;;;;;;;15.20;99.90;;;;;;5089912;28;20003;-69
2021/09/16 09:57:18;;;;;;;;;;;15.20;99.90;;;;;;5097202;28;20433;-69
2021/09/16 10:00:02;;;;;;;;;;;15.30;99.90;;;;;;5110417;28;19916;-69
2021/09/16 10:02:52;;;;;;;;;;;15.30;99.90;;;;;;5103745;28;19907;-68
2021/09/16 10:05:29;;;;;;;;;;;15.60;99.90;;;;;;5090250;28;20403;-69
2021/09/16 10:08:04;;;;;;;;;;;15.50;99.90;;;;;;5094483;28;19908;-70
2021/09/16 10:10:33;;;;;;;;;;;15.80;99.90;;;;;;5104176;28;20411;-72
2021/09/16 10:12:59;;;;;;;;;;;15.90;99.90;;;;;;5109200;28;19908;-69
2021/09/16 10:15:24;;;;;;;;;;;15.90;99.90;;;;;;5093482;28;20284;-69
2021/09/16 10:17:51;;;;;;;;;;;15.90;99.90;;;;;;5100302;28;20392;-69
2021/09/16 10:20:18;;;;;;;;;;;15.80;99.90;;;;;;5095575;28;19908;-69
2021/09/16 10:22:47;;;;;;;;;;;15.90;99.90;;;;;;5090867;28;19908;-71
2021/09/16 10:25:13;;;;;;;;;;;16.40;99.90;;;;;;5091266;28;19991;-72
2021/09/16 10:27:40;;;;;;;;;;;16.50;99.90;;;;;;5089911;28;19973;-69
2021/09/16 10:30:21;;;;;;;;;;;16.40;99.90;;;;;;5104169;28;20357;-70
2021/09/16 10:32:58;;;;;;;;;;;16.30;99.90;;;;;;5089078;28;19926;-69
2021/09/16 10:35:23;;;;;;;;;;;16.20;99.90;;;;;;5109740;28;19908;-69
2021/09/16 10:37:49;;;;;;;;;;;16.40;99.90;;;;;;5095213;28;19908;-69
2021/09/16 10:40:21;;;;;;;;;;;16.30;99.90;;;;;;5106118;28;19931;-69
2021/09/16 10:42:48;;;;;;;;;;;16.30;99.90;;;;;;5094852;28;19908;-69
2021/09/16 10:45:13;;;;;;;;;;;16.00;99.90;;;;;;5094566;28;19912;-69
2021/09/16 10:47:38;;;;;;;;;;;15.80;99.90;;;;;;5093567;28;20391;-70
2021/09/16 10:50:20;;;;;;;;;;;15.70;99.90;;;;;;5092383;28;19908;-74
2021/09/16 10:52:46;;;;;;;;;;;15.50;99.90;;;;;;5095249;28;20384;-69
2021/09/16 10:55:11;;;;;;;;;;;15.50;99.90;;;;;;5092726;28;19939;-69
2021/09/16 10:57:40;;;;;;;;;;;15.60;99.90;;;;;;5098774;28;19911;-70
2021/09/16 11:00:23;;;;;;;;;;;15.60;99.90;;;;;;5095822;28;20377;-69
2021/09/16 11:02:49;;;;;;;;;;;15.50;99.90;;;;;;5105943;28;20006;-69
2021/09/16 11:05:17;;;;;;;;;;;15.50;99.90;;;;;;5109361;28;19998;-69
2021/09/16 11:07:43;;;;;;;;;;;15.50;99.90;;;;;;5107423;28;19952;-69
2021/09/16 11:10:14;;;;;;;;;;;15.60;99.90;;;;;;5114721;28;20290;-72
2021/09/16 11:12:44;;;;;;;;;;;15.90;99.90;;;;;;5095387;28;19912;-70
2021/09/16 11:15:11;;;;;;;;;;;15.80;99.90;;;;;;5094760;28;19909;-69
2021/09/16 11:17:40;;;;;;;;;;;15.70;99.90;;;;;;5093831;28;19908;-69
2021/09/16 11:20:06;;;;;;;;;;;15.90;99.90;;;;;;5088086;28;19997;-69
2021/09/16 11:22:32;;;;;;;;;;;16.00;99.90;;;;;;5093473;28;19908;-69
2021/09/16 11:24:58;;;;;;;;;;;16.10;99.90;;;;;;5091658;28;19991;-69
2021/09/16 11:27:28;;;;;;;;;;;15.90;99.90;;;;;;5107740;28;19908;-70
2021/09/16 11:29:53;;;;;;;;;;;15.90;99.90;;;;;;5091075;28;19912;-70
2021/09/16 11:32:19;;;;;;;;;;;15.80;99.90;;;;;;5091360;28;19962;-69
2021/09/16 11:34:54;;;;;;;;;;;15.70;99.90;;;;;;5093450;28;19908;-69
2021/09/16 11:37:22;;;;;;;;;;;15.80;99.90;;;;;;5105102;28;19923;-69
2021/09/16 11:39:58;;;;;;;;;;;16.10;99.90;;;;;;5090602;28;19916;-70
2021/09/16 11:42:24;;;;;;;;;;;16.20;99.90;;;;;;5090416;28;20365;-69
2021/09/16 11:44:53;;;;;;;;;;;16.40;99.90;;;;;;5090874;28;19915;-72
2021/09/16 11:47:20;;;;;;;;;;;16.40;99.90;;;;;;5094796;28;19916;-70
2021/09/16 11:49:46;;;;;;;;;;;16.30;99.90;;;;;;5105700;28;19961;-73
2021/09/16 11:52:11;;;;;;;;;;;16.30;99.90;;;;;;5092090;28;20385;-70
2021/09/16 11:54:37;;;;;;;;;;;16.10;99.90;;;;;;5102919;28;19983;-70
2021/09/16 11:57:02;;;;;;;;;;;16.00;99.90;;;;;;5111749;28;19908;-71
2021/09/16 11:59:28;;;;;;;;;;;16.20;99.90;;;;;;5103797;28;19912;-73
2021/09/16 12:01:54;;;;;;;;;;;16.60;99.90;;;;;;5094028;28;19914;-70
2021/09/16 12:04:19;;;;;;;;;;;16.80;99.90;;;;;;5093100;28;20097;-70
2021/09/16 12:06:54;;;;;;;;;;;17.20;99.90;;;;;;5090315;28;19919;-70
2021/09/16 12:09:20;;;;;;;;;;;17.10;99.90;;;;;;5112144;28;19907;-70
2021/09/16 12:11:46;;;;;;;;;;;16.50;99.90;;;;;;5113421;28;19915;-73
2021/09/16 12:14:12;;;;;;;;;;;16.10;99.90;;;;;;5113598;28;20288;-70
2021/09/16 12:16:40;;;;;;;;;;;16.00;99.90;;;;;;5111697;28;19912;-70
2021/09/16 12:19:08;;;;;;;;;;;16.00;99.90;;;;;;5112900;28;19919;-70
2021/09/16 12:21:39;;;;;;;;;;;15.80;99.90;;;;;;5113220;28;19908;-70
2021/09/16 12:24:06;;;;;;;;;;;15.80;99.90;;;;;;5099024;28;20001;-71
2021/09/16 12:26:35;;;;;;;;;;;15.90;99.90;;;;;;5091062;28;20281;-70
2021/09/16 12:29:03;;;;;;;;;;;16.00;99.90;;;;;;5092817;28;19908;-70
2021/09/16 12:31:30;;;;;;;;;;;16.00;99.90;;;;;;5091350;28;20288;-71
2021/09/16 12:34:00;;;;;;;;;;;16.10;99.90;;;;;;5092377;28;19955;-70
2021/09/16 12:36:26;;;;;;;;;;;16.20;99.90;;;;;;5092516;28;19935;-70
2021/09/16 12:38:56;;;;;;;;;;;16.10;99.90;;;;;;5092813;28;19918;-70
2021/09/16 12:41:26;;;;;;;;;;;16.50;99.90;;;;;;5092218;28;19912;-70
2021/09/16 12:43:59;;;;;;;;;;;16.90;99.90;;;;;;5093079;28;19915;-70
2021/09/16 12:46:25;;;;;;;;;;;17.00;99.90;;;;;;5092206;28;19923;-70
2021/09/16 12:48:51;;;;;;;;;;;17.50;99.90;;;;;;5090348;28;20420;-70
2021/09/16 12:51:18;;;;;;;;;;;17.70;99.90;;;;;;5092571;28;19908;-70
2021/09/16 12:53:44;;;;;;;;;;;17.30;99.90;;;;;;5093780;28;19955;-70
2021/09/16 12:56:10;;;;;;;;;;;17.70;99.90;;;;;;5112603;28;19958;-72
2021/09/16 12:58:36;;;;;;;;;;;18.50;99.90;;;;;;5111151;28;19912;-70
2021/09/16 13:01:03;;;;;;;;;;;17.80;99.90;;;;;;5112962;28;19952;-70
2021/09/16 13:03:28;;;;;;;;;;;17.80;99.90;;;;;;5100385;28;19977;-73
2021/09/16 13:06:13;;;;;;;;;;;17.60;99.90;;;;;;5090244;28;19918;-70
2021/09/16 13:08:42;;;;;;;;;;;17.90;99.90;;;;;;5095597;28;20280;-70
2021/09/16 13:11:21;;;;;;;;;;;17.70;99.90;;;;;;5091491;28;19955;-71
2021/09/16 13:14:02;;;;;;;;;;;17.80;99.90;;;;;;5110071;28;19990;-70
2021/09/16 13:16:27;;;;;;;;;;;17.80;99.90;;;;;;5104486;28;19912;-72
2021/09/16 13:18:53;;;;;;;;;;;17.60;99.90;;;;;;5087426;28;19981;-70
2021/09/16 13:21:20;;;;;;;;;;;17.20;99.90;;;;;;5104432;28;19908;-70
2021/09/16 13:23:45;;;;;;;;;;;16.80;99.90;;;;;;5107679;28;19912;-70
2021/09/16 13:26:11;;;;;;;;;;;16.60;99.90;;;;;;5102920;28;19953;-70
2021/09/16 13:28:36;;;;;;;;;;;16.60;99.90;;;;;;5102823;28;20353;-70
2021/09/16 13:31:02;;;;;;;;;;;17.00;99.90;;;;;;5108632;28;19978;-72
2021/09/16 13:33:28;;;;;;;;;;;16.80;99.90;;;;;;5103093;28;19914;-70
2021/09/16 13:35:53;;;;;;;;;;;16.70;99.90;;;;;;5102259;28;20327;-70
2021/09/16 13:38:20;;;;;;;;;;;16.40;99.90;;;;;;5091628;28;19962;-70
2021/09/16 13:40:46;;;;;;;;;;;16.40;99.90;;;;;;5092172;28;19939;-70
2021/09/16 13:43:11;;;;;;;;;;;16.50;99.90;;;;;;5091916;28;19970;-70
2021/09/16 13:45:37;;;;;;;;;;;16.50;99.90;;;;;;5092866;28;19981;-70
2021/09/16 13:48:02;;;;;;;;;;;16.20;99.90;;;;;;5107887;28;20249;-70
2021/09/16 13:50:28;;;;;;;;;;;16.10;99.90;;;;;;5111975;28;20331;-70
2021/09/16 13:52:53;;;;;;;;;;;15.90;99.90;;;;;;5111722;28;19915;-70
2021/09/16 13:55:19;;;;;;;;;;;16.00;99.90;;;;;;5112049;28;19908;-70
2021/09/16 13:57:44;;;;;;;;;;;16.10;99.90;;;;;;5111725;28;19954;-70
2021/09/16 14:00:10;;;;;;;;;;;16.10;99.90;;;;;;5110281;28;20289;-70
2021/09/16 14:02:36;;;;;;;;;;;15.90;99.90;;;;;;5086071;28;19908;-70
2021/09/16 14:05:03;;;;;;;;;;;16.10;99.90;;;;;;5097569;28;19907;-70
2021/09/16 14:07:28;;;;;;;;;;;15.90;99.90;;;;;;5092519;28;19908;-70
2021/09/16 14:09:54;;;;;;;;;;;15.90;99.90;;;;;;5111783;28;20276;-70
2021/09/16 14:12:19;;;;;;;;;;;15.80;99.90;;;;;;5096871;28;19908;-70